Burlington, Maine
Current Conditions -  °F | °C
As of 8:53 AM on Friday 24 Oct 2014 (Local Time) from KMLT Reporting Station
Overcast Overcast  
Wind Chill:   Ceiling: 1600
Heat Index:   Visibility: 8mi
Dew Point:   Wind: 8mph
Humidity: 89%   Direction: 10°N
Pressure: 29.72"   Gusts: 18mph
Location:  45.21°N, 68.43°W
Report Text: KMLT 241253Z AUTO 01007G16KT 8SM SCT011 BKN016 OVC022 07/05 A2972 RMK AO2 RAE25 SLP072 P0000 T00670050
Loading
Personal Weather Stations






























Interactive Weather Map
Tropical Storm Tracking
New forecast layout! Learn more

10-Day Weather Forecast

Advertisements
Track Severe Weather on mobile